Time,TemperatureF,DewpointF,PressureIn,WindDirection,WindDirectionDegrees,WindSpeedMPH,WindSpeedGustMPH,Humidity,HourlyPrecipIn,Conditions,Clouds,dailyrainin,SolarRadiationWatts/m^2,SoftwareType,DateUTC
2013-03-16 00:22:00,50.0,50.0,-100.00,ESE,117,0.0,5.0,99,0.00,,,0.00,0.000000,,2013-03-16 07:22:00,
2013-03-16 00:32:00,50.0,50.0,-100.00,ESE,117,0.0,5.0,99,0.00,,,0.00,0.000000,,2013-03-16 07:32:00,
2013-03-16 00:42:00,50.0,50.0,-100.00,ESE,117,0.0,5.0,99,0.00,,,0.00,0.000000,,2013-03-16 07:42:00,
2013-03-16 00:52:00,50.0,50.0,-100.00,ESE,117,0.0,5.0,99,0.00,,,0.00,0.000000,,2013-03-16 07:52:00,
2013-03-16 01:23:00,49.0,49.0,-100.00,ESE,108,0.0,4.0,99,0.00,,,0.00,0.000000,,2013-03-16 08:23:00,
2013-03-16 01:32:00,49.0,49.0,-100.00,ESE,108,0.0,4.0,99,0.00,,,0.00,0.000000,,2013-03-16 08:32:00,
2013-03-16 01:42:00,49.0,49.0,-100.00,ESE,108,0.0,4.0,99,0.00,,,0.00,0.000000,,2013-03-16 08:42:00,
2013-03-16 01:52:00,49.0,49.0,-100.00,ESE,108,0.0,4.0,99,0.00,,,0.00,0.000000,,2013-03-16 08:52:00,
2013-03-16 02:22:00,48.0,48.0,-100.00,ESE,109,0.0,5.0,99,0.00,,,0.00,0.000000,,2013-03-16 09:22:00,
2013-03-16 02:32:00,48.0,48.0,-100.00,ESE,109,0.0,5.0,99,0.00,,,0.00,0.000000,,2013-03-16 09:32:00,
2013-03-16 02:42:00,48.0,48.0,-100.00,ESE,109,0.0,5.0,99,0.00,,,0.00,0.000000,,2013-03-16 09:42:00,
2013-03-16 02:52:00,48.0,48.0,-100.00,ESE,109,0.0,5.0,99,0.00,,,0.00,0.000000,,2013-03-16 09:52:00,
2013-03-16 03:22:00,46.0,46.0,-100.00,ESE,120,0.0,4.0,100,0.00,,,0.00,0.000000,,2013-03-16 10:22:00,
2013-03-16 03:32:00,46.0,46.0,-100.00,ESE,120,0.0,4.0,100,0.00,,,0.00,0.000000,,2013-03-16 10:32:00,
2013-03-16 03:42:00,46.0,46.0,-100.00,ESE,120,0.0,4.0,100,0.00,,,0.00,0.000000,,2013-03-16 10:42:00,
2013-03-16 03:52:00,46.0,46.0,-100.00,ESE,120,0.0,4.0,100,0.00,,,0.00,0.000000,,2013-03-16 10:52:00,
2013-03-16 04:22:00,48.0,48.0,-100.00,ESE,112,0.0,5.0,100,0.00,,,0.00,0.000000,,2013-03-16 11:22:00,
2013-03-16 04:32:00,48.0,48.0,-100.00,ESE,112,0.0,5.0,100,0.00,,,0.00,0.000000,,2013-03-16 11:32:00,
2013-03-16 04:42:00,48.0,48.0,-100.00,ESE,112,0.0,5.0,100,0.00,,,0.00,0.000000,,2013-03-16 11:42:00,
2013-03-16 04:52:00,48.0,48.0,-100.00,ESE,112,0.0,5.0,100,0.00,,,0.00,0.000000,,2013-03-16 11:52:00,
2013-03-16 05:22:00,46.0,46.0,-100.00,East,92,0.0,5.0,100,0.00,,,0.00,0.000000,,2013-03-16 12:22:00,
2013-03-16 05:32:00,46.0,46.0,-100.00,East,92,0.0,5.0,100,0.00,,,0.00,0.000000,,2013-03-16 12:32:00,
2013-03-16 05:42:00,46.0,46.0,-100.00,East,92,0.0,5.0,100,0.00,,,0.00,0.000000,,2013-03-16 12:42:00,
2013-03-16 05:52:00,46.0,46.0,-100.00,East,92,0.0,5.0,100,0.00,,,0.00,0.000000,,2013-03-16 12:52:00,
2013-03-16 06:22:00,44.0,44.0,-100.00,ESE,110,0.0,5.0,100,0.00,,,0.00,0.000000,,2013-03-16 13:22:00,
2013-03-16 06:32:00,44.0,44.0,-100.00,ESE,110,0.0,5.0,100,0.00,,,0.00,0.000000,,2013-03-16 13:32:00,
2013-03-16 06:41:00,44.0,44.0,-100.00,ESE,110,0.0,5.0,100,0.00,,,0.00,0.000000,,2013-03-16 13:41:00,
2013-03-16 06:52:00,44.0,44.0,-100.00,ESE,110,0.0,5.0,100,0.00,,,0.00,0.000000,,2013-03-16 13:52:00,
2013-03-16 07:22:00,44.0,44.0,-100.00,ESE,106,0.0,5.0,100,0.00,,,-99.99,0.000000,,2013-03-16 14:22:00,
2013-03-16 07:32:00,44.0,44.0,-100.00,ESE,106,0.0,5.0,100,0.00,,,-99.99,0.000000,,2013-03-16 14:32:00,
2013-03-16 07:42:00,44.0,44.0,-100.00,ESE,106,0.0,5.0,100,0.00,,,-99.99,0.000000,,2013-03-16 14:42:00,
2013-03-16 07:52:00,44.0,44.0,-100.00,ESE,106,0.0,5.0,100,0.00,,,-99.99,0.000000,,2013-03-16 14:52:00,
2013-03-16 08:22:00,46.0,46.0,-100.00,East,92,0.0,6.0,99,0.00,,,0.00,19.000000,,2013-03-16 15:22:00,
2013-03-16 08:33:00,46.0,46.0,-100.00,East,92,0.0,6.0,99,0.00,,,0.00,19.000000,,2013-03-16 15:33:00,
2013-03-16 08:43:00,46.0,46.0,-100.00,East,92,0.0,6.0,99,0.00,,,0.00,19.000000,,2013-03-16 15:43:00,
2013-03-16 08:52:00,46.0,46.0,-100.00,East,92,0.0,6.0,99,0.00,,,0.00,19.000000,,2013-03-16 15:52:00,
2013-03-16 09:22:00,57.0,49.0,-100.00,ESE,121,1.0,4.0,74,0.00,,,0.00,164.000000,,2013-03-16 16:22:00,
2013-03-16 09:42:00,57.0,49.0,-100.00,ESE,121,1.0,4.0,74,0.00,,,0.00,164.000000,,2013-03-16 16:42:00,
2013-03-16 09:52:00,57.0,49.0,-100.00,ESE,121,1.0,4.0,74,0.00,,,0.00,164.000000,,2013-03-16 16:52:00,
2013-03-16 10:22:00,63.0,56.0,-100.00,NE,36,0.0,5.0,79,-99.99,,,0.00,231.000000,,2013-03-16 17:22:00,
2013-03-16 10:42:00,63.0,56.0,-100.00,NE,36,0.0,5.0,79,-99.99,,,0.00,231.000000,,2013-03-16 17:42:00,
2013-03-16 10:52:00,63.0,56.0,-100.00,NE,36,0.0,5.0,79,-99.99,,,0.00,231.000000,,2013-03-16 17:52:00,
2013-03-16 11:22:00,60.0,57.0,-100.00,West,280,2.0,8.0,90,0.00,,,0.00,309.000000,,2013-03-16 18:22:00,
2013-03-16 11:42:00,60.0,57.0,-100.00,West,280,2.0,8.0,90,0.00,,,0.00,309.000000,,2013-03-16 18:42:00,
2013-03-16 11:52:00,60.0,57.0,-100.00,West,280,2.0,8.0,90,0.00,,,0.00,309.000000,,2013-03-16 18:52:00,
2013-03-16 12:22:00,62.0,56.0,-100.00,West,281,5.0,12.0,82,0.00,,,0.00,801.000000,,2013-03-16 19:22:00,
2013-03-16 12:32:00,62.0,56.0,-100.00,West,281,5.0,12.0,82,0.00,,,0.00,801.000000,,2013-03-16 19:32:00,
2013-03-16 12:42:00,62.0,56.0,-100.00,West,281,5.0,12.0,82,0.00,,,0.00,801.000000,,2013-03-16 19:42:00,
2013-03-16 12:52:00,62.0,56.0,-100.00,West,281,5.0,12.0,82,0.00,,,0.00,801.000000,,2013-03-16 19:52:00,
2013-03-16 13:22:00,65.0,58.0,-100.00,West,273,5.0,11.0,79,0.00,,,0.00,795.000000,,2013-03-16 20:22:00,
2013-03-16 13:32:00,65.0,58.0,-100.00,West,273,5.0,11.0,79,0.00,,,0.00,795.000000,,2013-03-16 20:32:00,
2013-03-16 13:42:00,65.0,58.0,-100.00,West,273,5.0,11.0,79,0.00,,,0.00,795.000000,,2013-03-16 20:42:00,
2013-03-16 13:51:00,65.0,58.0,-100.00,West,273,5.0,11.0,79,0.00,,,0.00,795.000000,,2013-03-16 20:51:00,
2013-03-16 14:22:00,69.0,56.0,-100.00,SSE,154,3.0,11.0,64,0.00,,,-99.99,1074.000000,,2013-03-16 21:22:00,
2013-03-16 14:32:00,69.0,56.0,-100.00,SSE,154,3.0,11.0,64,0.00,,,-99.99,1074.000000,,2013-03-16 21:32:00,
2013-03-16 14:43:00,69.0,56.0,-100.00,SSE,154,3.0,11.0,64,0.00,,,-99.99,1074.000000,,2013-03-16 21:43:00,
2013-03-16 14:52:00,69.0,56.0,-100.00,SSE,154,3.0,11.0,64,0.00,,,-99.99,1074.000000,,2013-03-16 21:52:00,
2013-03-16 15:22:00,66.0,53.0,-100.00,West,278,5.0,12.0,64,0.00,,,0.00,988.000000,,2013-03-16 22:22:00,
2013-03-16 15:32:00,66.0,53.0,-100.00,West,278,5.0,12.0,64,0.00,,,0.00,988.000000,,2013-03-16 22:32:00,
2013-03-16 15:42:00,66.0,53.0,-100.00,West,278,5.0,12.0,64,0.00,,,0.00,988.000000,,2013-03-16 22:42:00,
2013-03-16 15:52:00,66.0,53.0,-100.00,West,278,5.0,12.0,64,0.00,,,0.00,988.000000,,2013-03-16 22:52:00,
2013-03-16 16:22:00,64.0,54.0,-100.00,West,275,4.0,11.0,69,0.00,,,0.00,534.000000,,2013-03-16 23:22:00,
2013-03-16 16:32:00,64.0,54.0,-100.00,West,275,4.0,11.0,69,0.00,,,0.00,534.000000,,2013-03-16 23:32:00,
2013-03-16 16:42:00,64.0,54.0,-100.00,West,275,4.0,11.0,69,0.00,,,0.00,534.000000,,2013-03-16 23:42:00,
2013-03-16 16:52:00,64.0,54.0,-100.00,West,275,4.0,11.0,69,0.00,,,0.00,534.000000,,2013-03-16 23:52:00,
2013-03-16 17:22:00,63.0,53.0,-100.00,West,268,3.0,11.0,69,0.00,,,0.00,311.000000,,2013-03-17 00:22:00,
2013-03-16 17:32:00,63.0,53.0,-100.00,West,268,3.0,11.0,69,0.00,,,0.00,311.000000,,2013-03-17 00:32:00,
2013-03-16 17:42:00,63.0,53.0,-100.00,West,268,3.0,11.0,69,0.00,,,0.00,311.000000,,2013-03-17 00:42:00,
2013-03-16 17:52:00,63.0,53.0,-100.00,West,268,3.0,11.0,69,0.00,,,0.00,311.000000,,2013-03-17 00:52:00,
2013-03-16 18:22:00,60.0,51.0,-100.00,NW,304,3.0,10.0,73,0.00,,,0.00,299.000000,,2013-03-17 01:22:00,
2013-03-16 18:32:00,60.0,51.0,-100.00,NW,304,3.0,10.0,73,0.00,,,0.00,299.000000,,2013-03-17 01:32:00,
2013-03-16 18:42:00,60.0,51.0,-100.00,NW,304,3.0,10.0,73,0.00,,,0.00,299.000000,,2013-03-17 01:42:00,
2013-03-16 18:52:00,60.0,51.0,-100.00,NW,304,3.0,10.0,73,0.00,,,0.00,299.000000,,2013-03-17 01:52:00,
2013-03-16 19:22:00,57.0,51.0,-100.00,WNW,290,1.0,11.0,81,0.00,,,0.00,39.000000,,2013-03-17 02:22:00,
2013-03-16 19:33:00,57.0,51.0,-100.00,WNW,290,1.0,11.0,81,0.00,,,0.00,39.000000,,2013-03-17 02:33:00,
2013-03-16 19:42:00,57.0,51.0,-100.00,WNW,290,1.0,11.0,81,0.00,,,0.00,39.000000,,2013-03-17 02:42:00,
2013-03-16 19:52:00,57.0,51.0,-100.00,WNW,290,1.0,11.0,81,0.00,,,0.00,39.000000,,2013-03-17 02:52:00,
2013-03-16 20:22:00,52.0,51.0,-100.00,SE,142,0.0,8.0,95,0.00,,,0.00,0.000000,,2013-03-17 03:22:00,
2013-03-16 20:33:00,52.0,51.0,-100.00,SE,142,0.0,8.0,95,0.00,,,0.00,0.000000,,2013-03-17 03:33:00,
2013-03-16 20:42:00,52.0,51.0,-100.00,SE,142,0.0,8.0,95,0.00,,,0.00,0.000000,,2013-03-17 03:42:00,
2013-03-16 20:52:00,52.0,51.0,-100.00,SE,142,0.0,8.0,95,0.00,,,0.00,0.000000,,2013-03-17 03:52:00,
2013-03-16 21:23:00,50.0,50.0,-100.00,ESE,107,0.0,4.0,99,0.00,,,0.00,0.000000,,2013-03-17 04:23:00,
2013-03-16 21:32:00,50.0,50.0,-100.00,ESE,107,0.0,4.0,99,0.00,,,0.00,0.000000,,2013-03-17 04:32:00,
2013-03-16 21:42:00,50.0,50.0,-100.00,ESE,107,0.0,4.0,99,0.00,,,0.00,0.000000,,2013-03-17 04:42:00,
2013-03-16 21:53:00,50.0,50.0,-100.00,ESE,107,0.0,4.0,99,0.00,,,0.00,0.000000,,2013-03-17 04:53:00,
2013-03-16 22:22:00,49.0,49.0,-100.00,ESE,115,0.0,5.0,99,0.00,,,0.00,0.000000,,2013-03-17 05:22:00,
2013-03-16 22:32:00,49.0,49.0,-100.00,ESE,115,0.0,5.0,99,0.00,,,0.00,0.000000,,2013-03-17 05:32:00,
2013-03-16 22:42:00,49.0,49.0,-100.00,ESE,115,0.0,5.0,99,0.00,,,0.00,0.000000,,2013-03-17 05:42:00,
2013-03-16 22:51:00,49.0,49.0,-100.00,ESE,115,0.0,5.0,99,0.00,,,0.00,0.000000,,2013-03-17 05:51:00,
2013-03-16 23:22:00,49.0,49.0,-100.00,ESE,106,0.0,6.0,99,0.00,,,0.00,0.000000,,2013-03-17 06:22:00,
2013-03-16 23:32:00,49.0,49.0,-100.00,ESE,106,0.0,6.0,99,0.00,,,0.00,0.000000,,2013-03-17 06:32:00,
2013-03-16 23:42:00,49.0,49.0,-100.00,ESE,106,0.0,6.0,99,0.00,,,0.00,0.000000,,2013-03-17 06:42:00,
2013-03-16 23:52:00,49.0,49.0,-100.00,ESE,106,0.0,6.0,99,0.00,,,0.00,0.000000,,2013-03-17 06:52:00,